sensor_id;sensor_type;location;lat;lon;timestamp;P1;durP1;ratioP1;P2;durP2;ratioP2
74465;SDS011;62916;50.044;15.938;2024-03-23T00:54:53;1.90;;;1.50;;
74465;SDS011;62916;50.044;15.938;2024-03-23T00:57:23;2.20;;;1.40;;
74465;SDS011;62916;50.044;15.938;2024-03-23T00:59:54;1.50;;;1.30;;
74465;SDS011;62916;50.044;15.938;2024-03-23T01:02:24;2.00;;;1.20;;
74465;SDS011;62916;50.044;15.938;2024-03-23T01:04:55;2.20;;;1.50;;
74465;SDS011;62916;50.044;15.938;2024-03-23T01:07:25;2.10;;;1.40;;
74465;SDS011;62916;50.044;15.938;2024-03-23T01:09:55;1.70;;;1.40;;
74465;SDS011;62916;50.044;15.938;2024-03-23T01:12:26;1.40;;;1.30;;
74465;SDS011;62916;50.044;15.938;2024-03-23T01:14:56;1.60;;;1.40;;
74465;SDS011;62916;50.044;15.938;2024-03-23T01:17:27;1.80;;;1.40;;
74465;SDS011;62916;50.044;15.938;2024-03-23T01:19:58;2.20;;;1.80;;
74465;SDS011;62916;50.044;15.938;2024-03-23T01:22:28;1.90;;;1.60;;
74465;SDS011;62916;50.044;15.938;2024-03-23T01:24:59;1.80;;;1.50;;
74465;SDS011;62916;50.044;15.938;2024-03-23T01:27:29;2.00;;;1.80;;
74465;SDS011;62916;50.044;15.938;2024-03-23T01:30:00;2.10;;;1.60;;
74465;SDS011;62916;50.044;15.938;2024-03-23T01:32:30;2.00;;;1.60;;
74465;SDS011;62916;50.044;15.938;2024-03-23T01:35:01;2.10;;;1.40;;
74465;SDS011;62916;50.044;15.938;2024-03-23T01:37:32;1.90;;;1.70;;
74465;SDS011;62916;50.044;15.938;2024-03-23T01:40:03;1.40;;;1.30;;
74465;SDS011;62916;50.044;15.938;2024-03-23T01:42:35;2.00;;;1.30;;
74465;SDS011;62916;50.044;15.938;2024-03-23T01:45:07;2.20;;;1.50;;
74465;SDS011;62916;50.044;15.938;2024-03-23T01:47:39;2.90;;;2.10;;
74465;SDS011;62916;50.044;15.938;2024-03-23T01:50:09;2.30;;;1.80;;
74465;SDS011;62916;50.044;15.938;2024-03-23T01:52:40;2.30;;;1.70;;
74465;SDS011;62916;50.044;15.938;2024-03-23T01:55:12;2.10;;;1.90;;
74465;SDS011;62916;50.044;15.938;2024-03-23T01:57:42;2.60;;;1.80;;
74465;SDS011;62916;50.044;15.938;2024-03-23T02:00:14;2.00;;;1.60;;
74465;SDS011;62916;50.044;15.938;2024-03-23T02:02:45;2.30;;;1.50;;
74465;SDS011;62916;50.044;15.938;2024-03-23T02:05:16;2.50;;;1.90;;
74465;SDS011;62916;50.044;15.938;2024-03-23T02:07:46;3.40;;;1.90;;
74465;SDS011;62916;50.044;15.938;2024-03-23T02:10:19;2.70;;;1.60;;
74465;SDS011;62916;50.044;15.938;2024-03-23T02:12:50;2.80;;;1.70;;
74465;SDS011;62916;50.044;15.938;2024-03-23T02:15:21;2.80;;;1.90;;
74465;SDS011;62916;50.044;15.938;2024-03-23T02:17:51;2.80;;;1.60;;
74465;SDS011;62916;50.044;15.938;2024-03-23T02:20:22;1.70;;;1.50;;
74465;SDS011;62916;50.044;15.938;2024-03-23T02:22:53;3.40;;;1.80;;
74465;SDS011;62916;50.044;15.938;2024-03-23T02:25:23;2.40;;;1.70;;
74465;SDS011;62916;50.044;15.938;2024-03-23T02:27:54;2.20;;;1.60;;
74465;SDS011;62916;50.044;15.938;2024-03-23T02:30:26;2.60;;;1.90;;
74465;SDS011;62916;50.044;15.938;2024-03-23T02:32:57;2.10;;;1.40;;
74465;SDS011;62916;50.044;15.938;2024-03-23T02:35:29;2.10;;;1.50;;
74465;SDS011;62916;50.044;15.938;2024-03-23T02:37:59;2.10;;;1.70;;
74465;SDS011;62916;50.044;15.938;2024-03-23T02:40:30;2.40;;;1.80;;
74465;SDS011;62916;50.044;15.938;2024-03-23T02:43:01;2.00;;;1.50;;
74465;SDS011;62916;50.044;15.938;2024-03-23T02:45:31;2.20;;;1.50;;
74465;SDS011;62916;50.044;15.938;2024-03-23T02:48:02;3.20;;;1.90;;
74465;SDS011;62916;50.044;15.938;2024-03-23T02:50:33;2.40;;;1.80;;
74465;SDS011;62916;50.044;15.938;2024-03-23T02:53:04;2.80;;;1.90;;
74465;SDS011;62916;50.044;15.938;2024-03-23T02:55:35;2.80;;;2.10;;
74465;SDS011;62916;50.044;15.938;2024-03-23T02:58:06;2.50;;;1.60;;
74465;SDS011;62916;50.044;15.938;2024-03-23T03:00:36;2.60;;;1.90;;
74465;SDS011;62916;50.044;15.938;2024-03-23T03:03:08;2.70;;;2.20;;
74465;SDS011;62916;50.044;15.938;2024-03-23T03:05:39;2.10;;;1.60;;
74465;SDS011;62916;50.044;15.938;2024-03-23T03:08:09;2.20;;;1.80;;
74465;SDS011;62916;50.044;15.938;2024-03-23T03:10:40;2.70;;;1.50;;
74465;SDS011;62916;50.044;15.938;2024-03-23T03:13:11;2.90;;;1.70;;
74465;SDS011;62916;50.044;15.938;2024-03-23T03:15:41;2.10;;;1.70;;
74465;SDS011;62916;50.044;15.938;2024-03-23T03:18:12;3.20;;;1.90;;
74465;SDS011;62916;50.044;15.938;2024-03-23T03:20:42;2.90;;;1.80;;
74465;SDS011;62916;50.044;15.938;2024-03-23T03:23:13;2.30;;;2.00;;
74465;SDS011;62916;50.044;15.938;2024-03-23T03:25:43;2.60;;;1.90;;
74465;SDS011;62916;50.044;15.938;2024-03-23T03:28:14;1.70;;;1.50;;
74465;SDS011;62916;50.044;15.938;2024-03-23T03:30:45;2.40;;;2.20;;
74465;SDS011;62916;50.044;15.938;2024-03-23T03:33:16;1.60;;;1.50;;
74465;SDS011;62916;50.044;15.938;2024-03-23T03:35:47;2.60;;;1.60;;
74465;SDS011;62916;50.044;15.938;2024-03-23T03:38:19;2.00;;;1.80;;
74465;SDS011;62916;50.044;15.938;2024-03-23T03:40:50;2.20;;;1.70;;
74465;SDS011;62916;50.044;15.938;2024-03-23T03:43:21;1.80;;;1.70;;
74465;SDS011;62916;50.044;15.938;2024-03-23T03:45:54;3.00;;;1.60;;
74465;SDS011;62916;50.044;15.938;2024-03-23T03:48:25;2.30;;;1.70;;
74465;SDS011;62916;50.044;15.938;2024-03-23T03:50:57;2.70;;;2.00;;
74465;SDS011;62916;50.044;15.938;2024-03-23T03:53:27;2.20;;;1.60;;
74465;SDS011;62916;50.044;15.938;2024-03-23T03:56:01;1.90;;;1.40;;
74465;SDS011;62916;50.044;15.938;2024-03-23T03:58:32;1.90;;;1.50;;
74465;SDS011;62916;50.044;15.938;2024-03-23T04:01:03;1.60;;;1.40;;
74465;SDS011;62916;50.044;15.938;2024-03-23T04:03:33;1.90;;;1.70;;
74465;SDS011;62916;50.044;15.938;2024-03-23T04:06:04;2.50;;;1.90;;
74465;SDS011;62916;50.044;15.938;2024-03-23T04:08:35;2.70;;;1.70;;
74465;SDS011;62916;50.044;15.938;2024-03-23T04:11:05;1.70;;;1.60;;
74465;SDS011;62916;50.044;15.938;2024-03-23T04:13:36;1.70;;;1.60;;
74465;SDS011;62916;50.044;15.938;2024-03-23T04:16:09;1.90;;;1.40;;
74465;SDS011;62916;50.044;15.938;2024-03-23T04:18:39;2.10;;;1.90;;
74465;SDS011;62916;50.044;15.938;2024-03-23T04:21:11;2.40;;;1.40;;
74465;SDS011;62916;50.044;15.938;2024-03-23T04:23:42;1.70;;;1.30;;
74465;SDS011;62916;50.044;15.938;2024-03-23T04:26:13;1.60;;;1.40;;
74465;SDS011;62916;50.044;15.938;2024-03-23T04:28:43;2.20;;;1.60;;
74465;SDS011;62916;50.044;15.938;2024-03-23T04:31:14;2.00;;;1.80;;
74465;SDS011;62916;50.044;15.938;2024-03-23T04:33:44;1.70;;;1.30;;
74465;SDS011;62916;50.044;15.938;2024-03-23T04:36:15;2.00;;;1.60;;
74465;SDS011;62916;50.044;15.938;2024-03-23T04:38:47;2.00;;;1.60;;
74465;SDS011;62916;50.044;15.938;2024-03-23T04:41:20;1.90;;;1.40;;
74465;SDS011;62916;50.044;15.938;2024-03-23T04:43:51;2.30;;;1.40;;
74465;SDS011;62916;50.044;15.938;2024-03-23T04:46:21;1.80;;;1.40;;
74465;SDS011;62916;50.044;15.938;2024-03-23T04:48:52;1.70;;;1.30;;
74465;SDS011;62916;50.044;15.938;2024-03-23T04:51:25;2.80;;;1.60;;
74465;SDS011;62916;50.044;15.938;2024-03-23T04:53:56;2.10;;;1.50;;
74465;SDS011;62916;50.044;15.938;2024-03-23T04:56:26;2.50;;;1.50;;
74465;SDS011;62916;50.044;15.938;2024-03-23T04:58:57;2.60;;;1.30;;
74465;SDS011;62916;50.044;15.938;2024-03-23T05:01:29;2.50;;;1.60;;
74465;SDS011;62916;50.044;15.938;2024-03-23T05:03:59;1.70;;;1.40;;
74465;SDS011;62916;50.044;15.938;2024-03-23T05:06:31;1.90;;;1.70;;
74465;SDS011;62916;50.044;15.938;2024-03-23T05:09:02;2.20;;;1.30;;
74465;SDS011;62916;50.044;15.938;2024-03-23T05:11:34;1.70;;;1.40;;
74465;SDS011;62916;50.044;15.938;2024-03-23T05:14:04;2.20;;;1.30;;
74465;SDS011;62916;50.044;15.938;2024-03-23T05:16:35;1.50;;;1.40;;
74465;SDS011;62916;50.044;15.938;2024-03-23T05:19:06;1.70;;;1.40;;
74465;SDS011;62916;50.044;15.938;2024-03-23T05:21:36;2.40;;;1.70;;
74465;SDS011;62916;50.044;15.938;2024-03-23T05:24:07;2.80;;;1.60;;
74465;SDS011;62916;50.044;15.938;2024-03-23T05:26:38;1.70;;;1.50;;
74465;SDS011;62916;50.044;15.938;2024-03-23T05:29:08;2.80;;;1.80;;
74465;SDS011;62916;50.044;15.938;2024-03-23T05:31:41;2.10;;;1.20;;
74465;SDS011;62916;50.044;15.938;2024-03-23T05:34:12;2.00;;;1.50;;
74465;SDS011;62916;50.044;15.938;2024-03-23T05:36:42;1.60;;;1.40;;
74465;SDS011;62916;50.044;15.938;2024-03-23T05:39:13;1.80;;;1.40;;
74465;SDS011;62916;50.044;15.938;2024-03-23T05:41:44;2.50;;;1.40;;
74465;SDS011;62916;50.044;15.938;2024-03-23T05:44:14;2.60;;;1.50;;
74465;SDS011;62916;50.044;15.938;2024-03-23T05:46:45;1.90;;;1.70;;
74465;SDS011;62916;50.044;15.938;2024-03-23T05:49:16;1.90;;;1.40;;
74465;SDS011;62916;50.044;15.938;2024-03-23T05:51:47;1.90;;;1.40;;
74465;SDS011;62916;50.044;15.938;2024-03-23T05:54:18;3.20;;;1.70;;
74465;SDS011;62916;50.044;15.938;2024-03-23T05:56:48;1.80;;;1.40;;
74465;SDS011;62916;50.044;15.938;2024-03-23T05:59:23;5.40;;;1.60;;
74465;SDS011;62916;50.044;15.938;2024-03-23T06:01:54;2.10;;;1.40;;
74465;SDS011;62916;50.044;15.938;2024-03-23T06:04:25;2.30;;;1.50;;
74465;SDS011;62916;50.044;15.938;2024-03-23T06:06:55;1.50;;;1.40;;
74465;SDS011;62916;50.044;15.938;2024-03-23T06:09:26;2.70;;;1.50;;
74465;SDS011;62916;50.044;15.938;2024-03-23T06:11:59;3.00;;;1.70;;
74465;SDS011;62916;50.044;15.938;2024-03-23T06:14:29;2.30;;;1.80;;
74465;SDS011;62916;50.044;15.938;2024-03-23T06:17:00;2.10;;;1.80;;
74465;SDS011;62916;50.044;15.938;2024-03-23T06:19:31;2.20;;;1.80;;
74465;SDS011;62916;50.044;15.938;2024-03-23T06:22:02;2.60;;;1.80;;
74465;SDS011;62916;50.044;15.938;2024-03-23T06:24:34;2.70;;;1.80;;
74465;SDS011;62916;50.044;15.938;2024-03-23T06:27:05;4.70;;;2.30;;
74465;SDS011;62916;50.044;15.938;2024-03-23T06:29:36;3.10;;;2.20;;
74465;SDS011;62916;50.044;15.938;2024-03-23T06:32:07;4.20;;;2.40;;
74465;SDS011;62916;50.044;15.938;2024-03-23T06:34:38;3.90;;;2.90;;
74465;SDS011;62916;50.044;15.938;2024-03-23T06:37:11;3.10;;;2.80;;
74465;SDS011;62916;50.044;15.938;2024-03-23T06:39:42;3.00;;;2.10;;
74465;SDS011;62916;50.044;15.938;2024-03-23T06:42:14;3.20;;;2.10;;
74465;SDS011;62916;50.044;15.938;2024-03-23T06:44:45;4.00;;;2.30;;
74465;SDS011;62916;50.044;15.938;2024-03-23T06:47:16;3.80;;;2.90;;
74465;SDS011;62916;50.044;15.938;2024-03-23T06:49:47;3.50;;;2.60;;
74465;SDS011;62916;50.044;15.938;2024-03-23T06:52:18;3.30;;;2.90;;
74465;SDS011;62916;50.044;15.938;2024-03-23T06:54:49;3.40;;;2.20;;
74465;SDS011;62916;50.044;15.938;2024-03-23T06:57:19;3.90;;;2.70;;
74465;SDS011;62916;50.044;15.938;2024-03-23T06:59:50;2.70;;;2.40;;
74465;SDS011;62916;50.044;15.938;2024-03-23T07:02:21;3.80;;;2.60;;
74465;SDS011;62916;50.044;15.938;2024-03-23T07:04:51;3.40;;;2.50;;
74465;SDS011;62916;50.044;15.938;2024-03-23T07:07:22;3.60;;;2.40;;
74465;SDS011;62916;50.044;15.938;2024-03-23T07:09:53;4.80;;;2.80;;
74465;SDS011;62916;50.044;15.938;2024-03-23T07:12:23;3.60;;;2.80;;
74465;SDS011;62916;50.044;15.938;2024-03-23T07:14:54;3.40;;;2.80;;
74465;SDS011;62916;50.044;15.938;2024-03-23T07:17:24;5.40;;;3.20;;
74465;SDS011;62916;50.044;15.938;2024-03-23T07:19:56;3.90;;;2.80;;
74465;SDS011;62916;50.044;15.938;2024-03-23T07:22:26;3.50;;;3.00;;
74465;SDS011;62916;50.044;15.938;2024-03-23T07:24:59;6.40;;;3.00;;
74465;SDS011;62916;50.044;15.938;2024-03-23T07:27:30;4.60;;;3.80;;
74465;SDS011;62916;50.044;15.938;2024-03-23T07:30:01;4.10;;;3.20;;
74465;SDS011;62916;50.044;15.938;2024-03-23T07:32:33;4.60;;;3.30;;
74465;SDS011;62916;50.044;15.938;2024-03-23T07:35:03;3.60;;;3.00;;
74465;SDS011;62916;50.044;15.938;2024-03-23T07:37:34;4.40;;;3.30;;
74465;SDS011;62916;50.044;15.938;2024-03-23T07:40:06;5.10;;;3.30;;
74465;SDS011;62916;50.044;15.938;2024-03-23T07:42:37;4.50;;;2.90;;
74465;SDS011;62916;50.044;15.938;2024-03-23T07:45:08;4.20;;;3.10;;
74465;SDS011;62916;50.044;15.938;2024-03-23T07:47:39;4.50;;;3.20;;
74465;SDS011;62916;50.044;15.938;2024-03-23T07:50:10;3.60;;;3.20;;
74465;SDS011;62916;50.044;15.938;2024-03-23T07:52:41;5.20;;;3.50;;
74465;SDS011;62916;50.044;15.938;2024-03-23T07:55:12;3.50;;;3.20;;
74465;SDS011;62916;50.044;15.938;2024-03-23T07:57:42;5.70;;;3.00;;
74465;SDS011;62916;50.044;15.938;2024-03-23T08:00:14;3.60;;;3.10;;
74465;SDS011;62916;50.044;15.938;2024-03-23T08:02:45;3.80;;;3.20;;
74465;SDS011;62916;50.044;15.938;2024-03-23T08:05:16;4.00;;;2.80;;
74465;SDS011;62916;50.044;15.938;2024-03-23T08:07:51;4.60;;;2.90;;
74465;SDS011;62916;50.044;15.938;2024-03-23T08:10:21;4.00;;;3.00;;
74465;SDS011;62916;50.044;15.938;2024-03-23T08:12:54;2.90;;;2.20;;
74465;SDS011;62916;50.044;15.938;2024-03-23T08:15:25;3.00;;;2.20;;
74465;SDS011;62916;50.044;15.938;2024-03-23T08:17:56;2.90;;;2.10;;
74465;SDS011;62916;50.044;15.938;2024-03-23T08:20:31;3.60;;;2.10;;
74465;SDS011;62916;50.044;15.938;2024-03-23T08:23:01;3.30;;;2.20;;
74465;SDS011;62916;50.044;15.938;2024-03-23T08:25:32;3.00;;;2.10;;
74465;SDS011;62916;50.044;15.938;2024-03-23T08:28:04;3.30;;;2.20;;
74465;SDS011;62916;50.044;15.938;2024-03-23T08:30:35;2.30;;;2.10;;
74465;SDS011;62916;50.044;15.938;2024-03-23T08:33:06;2.30;;;2.10;;
74465;SDS011;62916;50.044;15.938;2024-03-23T08:35:36;2.30;;;1.50;;
74465;SDS011;62916;50.044;15.938;2024-03-23T08:38:07;2.80;;;1.90;;
74465;SDS011;62916;50.044;15.938;2024-03-23T08:40:38;2.50;;;1.90;;
74465;SDS011;62916;50.044;15.938;2024-03-23T08:43:09;1.70;;;1.60;;
74465;SDS011;62916;50.044;15.938;2024-03-23T08:45:39;1.90;;;1.60;;
74465;SDS011;62916;50.044;15.938;2024-03-23T08:48:10;2.60;;;1.70;;
74465;SDS011;62916;50.044;15.938;2024-03-23T08:50:41;2.20;;;1.80;;
74465;SDS011;62916;50.044;15.938;2024-03-23T08:53:11;2.90;;;2.00;;
74465;SDS011;62916;50.044;15.938;2024-03-23T08:55:42;2.30;;;1.70;;
74465;SDS011;62916;50.044;15.938;2024-03-23T08:58:24;2.80;;;2.50;;
74465;SDS011;62916;50.044;15.938;2024-03-23T09:00:56;1.80;;;1.60;;
74465;SDS011;62916;50.044;15.938;2024-03-23T09:03:36;2.60;;;1.40;;
74465;SDS011;62916;50.044;15.938;2024-03-23T09:06:08;1.80;;;1.50;;
74465;SDS011;62916;50.044;15.938;2024-03-23T09:08:39;2.10;;;1.90;;
74465;SDS011;62916;50.044;15.938;2024-03-23T09:11:10;1.90;;;1.40;;
74465;SDS011;62916;50.044;15.938;2024-03-23T09:13:41;1.80;;;1.50;;
74465;SDS011;62916;50.044;15.938;2024-03-23T09:16:12;2.80;;;1.50;;
74465;SDS011;62916;50.044;15.938;2024-03-23T09:18:43;3.20;;;1.60;;
74465;SDS011;62916;50.044;15.938;2024-03-23T09:21:13;1.50;;;1.30;;
74465;SDS011;62916;50.044;15.938;2024-03-23T09:23:44;2.10;;;1.90;;
74465;SDS011;62916;50.044;15.938;2024-03-23T09:26:15;1.50;;;1.00;;
74465;SDS011;62916;50.044;15.938;2024-03-23T09:28:45;1.80;;;1.40;;
74465;SDS011;62916;50.044;15.938;2024-03-23T09:31:18;2.20;;;1.40;;
74465;SDS011;62916;50.044;15.938;2024-03-23T09:33:51;2.60;;;1.50;;
74465;SDS011;62916;50.044;15.938;2024-03-23T09:36:22;2.20;;;1.60;;
74465;SDS011;62916;50.044;15.938;2024-03-23T09:38:53;3.20;;;1.30;;
74465;SDS011;62916;50.044;15.938;2024-03-23T09:41:23;2.60;;;1.50;;
74465;SDS011;62916;50.044;15.938;2024-03-23T09:43:54;2.50;;;1.60;;
74465;SDS011;62916;50.044;15.938;2024-03-23T09:46:25;1.60;;;1.40;;
74465;SDS011;62916;50.044;15.938;2024-03-23T09:48:56;1.50;;;1.40;;
74465;SDS011;62916;50.044;15.938;2024-03-23T09:51:27;1.70;;;1.30;;
74465;SDS011;62916;50.044;15.938;2024-03-23T09:53:58;1.80;;;1.50;;
74465;SDS011;62916;50.044;15.938;2024-03-23T09:56:29;2.70;;;1.60;;
74465;SDS011;62916;50.044;15.938;2024-03-23T09:59:02;2.50;;;1.10;;
74465;SDS011;62916;50.044;15.938;2024-03-23T10:01:34;1.80;;;1.60;;
74465;SDS011;62916;50.044;15.938;2024-03-23T10:04:05;2.30;;;1.30;;
74465;SDS011;62916;50.044;15.938;2024-03-23T10:06:36;2.00;;;1.40;;
74465;SDS011;62916;50.044;15.938;2024-03-23T10:09:10;2.00;;;1.20;;
74465;SDS011;62916;50.044;15.938;2024-03-23T10:11:46;1.70;;;1.50;;
74465;SDS011;62916;50.044;15.938;2024-03-23T10:14:23;2.20;;;1.30;;
74465;SDS011;62916;50.044;15.938;2024-03-23T10:17:02;1.60;;;1.30;;
74465;SDS011;62916;50.044;15.938;2024-03-23T10:19:43;1.70;;;1.40;;
74465;SDS011;62916;50.044;15.938;2024-03-23T10:22:14;1.40;;;1.20;;
74465;SDS011;62916;50.044;15.938;2024-03-23T10:24:46;1.50;;;1.40;;
74465;SDS011;62916;50.044;15.938;2024-03-23T10:27:18;1.40;;;1.00;;
74465;SDS011;62916;50.044;15.938;2024-03-23T10:29:49;3.20;;;1.70;;
74465;SDS011;62916;50.044;15.938;2024-03-23T10:32:20;1.90;;;1.30;;
74465;SDS011;62916;50.044;15.938;2024-03-23T10:34:50;1.40;;;1.20;;
74465;SDS011;62916;50.044;15.938;2024-03-23T10:37:21;5.30;;;1.20;;
74465;SDS011;62916;50.044;15.938;2024-03-23T10:39:52;1.60;;;1.50;;
74465;SDS011;62916;50.044;15.938;2024-03-23T10:42:22;1.50;;;1.10;;
74465;SDS011;62916;50.044;15.938;2024-03-23T10:44:53;2.00;;;1.20;;
74465;SDS011;62916;50.044;15.938;2024-03-23T10:47:24;1.60;;;1.00;;
74465;SDS011;62916;50.044;15.938;2024-03-23T10:49:56;2.90;;;1.40;;
74465;SDS011;62916;50.044;15.938;2024-03-23T10:52:27;1.90;;;1.50;;
74465;SDS011;62916;50.044;15.938;2024-03-23T10:54:58;1.60;;;1.50;;
74465;SDS011;62916;50.044;15.938;2024-03-23T10:57:31;1.40;;;1.20;;
74465;SDS011;62916;50.044;15.938;2024-03-23T11:00:09;1.50;;;1.30;;
74465;SDS011;62916;50.044;15.938;2024-03-23T11:02:42;1.70;;;1.40;;
74465;SDS011;62916;50.044;15.938;2024-03-23T11:05:29;1.30;;;1.20;;
74465;SDS011;62916;50.044;15.938;2024-03-23T11:08:00;1.50;;;1.20;;
74465;SDS011;62916;50.044;15.938;2024-03-23T11:10:31;1.20;;;1.00;;
74465;SDS011;62916;50.044;15.938;2024-03-23T11:16:06;1.60;;;1.50;;
74465;SDS011;62916;50.044;15.938;2024-03-23T11:18:43;1.80;;;1.20;;
74465;SDS011;62916;50.044;15.938;2024-03-23T11:21:14;3.20;;;1.70;;
74465;SDS011;62916;50.044;15.938;2024-03-23T11:24:23;2.50;;;1.20;;
74465;SDS011;62916;50.044;15.938;2024-03-23T11:26:54;1.30;;;1.20;;
74465;SDS011;62916;50.044;15.938;2024-03-23T11:31:57;1.70;;;1.20;;
74465;SDS011;62916;50.044;15.938;2024-03-23T11:34:30;2.50;;;1.20;;
74465;SDS011;62916;50.044;15.938;2024-03-23T11:37:06;1.70;;;1.30;;
74465;SDS011;62916;50.044;15.938;2024-03-23T11:39:37;1.40;;;1.20;;
74465;SDS011;62916;50.044;15.938;2024-03-23T11:42:08;1.50;;;1.30;;
74465;SDS011;62916;50.044;15.938;2024-03-23T11:44:44;1.50;;;1.40;;
74465;SDS011;62916;50.044;15.938;2024-03-23T11:47:15;1.20;;;0.90;;
74465;SDS011;62916;50.044;15.938;2024-03-23T11:49:48;1.60;;;1.00;;
74465;SDS011;62916;50.044;15.938;2024-03-23T11:52:19;1.50;;;1.00;;
74465;SDS011;62916;50.044;15.938;2024-03-23T11:54:49;2.20;;;1.30;;
74465;SDS011;62916;50.044;15.938;2024-03-23T11:57:20;1.10;;;0.90;;
74465;SDS011;62916;50.044;15.938;2024-03-23T11:59:51;1.70;;;1.10;;
74465;SDS011;62916;50.044;15.938;2024-03-23T12:02:22;1.40;;;1.20;;
74465;SDS011;62916;50.044;15.938;2024-03-23T12:04:53;1.60;;;0.90;;
74465;SDS011;62916;50.044;15.938;2024-03-23T12:07:24;1.80;;;1.10;;
74465;SDS011;62916;50.044;15.938;2024-03-23T12:10:04;1.10;;;0.90;;
74465;SDS011;62916;50.044;15.938;2024-03-23T12:12:36;2.50;;;1.20;;
74465;SDS011;62916;50.044;15.938;2024-03-23T12:15:08;1.80;;;1.70;;
74465;SDS011;62916;50.044;15.938;2024-03-23T12:17:40;1.00;;;0.90;;
74465;SDS011;62916;50.044;15.938;2024-03-23T12:20:11;1.10;;;0.80;;
74465;SDS011;62916;50.044;15.938;2024-03-23T12:22:42;1.60;;;1.40;;
74465;SDS011;62916;50.044;15.938;2024-03-23T12:25:14;1.20;;;1.10;;
74465;SDS011;62916;50.044;15.938;2024-03-23T12:27:45;1.30;;;1.10;;
74465;SDS011;62916;50.044;15.938;2024-03-23T12:30:16;1.10;;;0.90;;
74465;SDS011;62916;50.044;15.938;2024-03-23T12:32:47;1.10;;;1.00;;
74465;SDS011;62916;50.044;15.938;2024-03-23T12:35:18;1.50;;;1.10;;
74465;SDS011;62916;50.044;15.938;2024-03-23T12:37:48;1.00;;;0.90;;
74465;SDS011;62916;50.044;15.938;2024-03-23T12:40:19;1.60;;;1.00;;
74465;SDS011;62916;50.044;15.938;2024-03-23T12:42:50;1.30;;;1.20;;
74465;SDS011;62916;50.044;15.938;2024-03-23T12:45:21;3.40;;;1.00;;
74465;SDS011;62916;50.044;15.938;2024-03-23T12:47:52;2.40;;;1.20;;
74465;SDS011;62916;50.044;15.938;2024-03-23T12:50:23;1.30;;;1.00;;
74465;SDS011;62916;50.044;15.938;2024-03-23T12:52:53;1.00;;;0.90;;
74465;SDS011;62916;50.044;15.938;2024-03-23T12:55:24;2.10;;;1.10;;
74465;SDS011;62916;50.044;15.938;2024-03-23T12:57:55;2.40;;;1.10;;
74465;SDS011;62916;50.044;15.938;2024-03-23T13:00:26;1.20;;;0.90;;
74465;SDS011;62916;50.044;15.938;2024-03-23T13:02:57;1.10;;;0.90;;
74465;SDS011;62916;50.044;15.938;2024-03-23T13:05:27;2.40;;;1.20;;
74465;SDS011;62916;50.044;15.938;2024-03-23T13:07:58;1.10;;;1.00;;
74465;SDS011;62916;50.044;15.938;2024-03-23T13:10:28;0.60;;;0.60;;
74465;SDS011;62916;50.044;15.938;2024-03-23T13:12:59;0.90;;;0.90;;
74465;SDS011;62916;50.044;15.938;2024-03-23T13:15:30;1.50;;;1.10;;
74465;SDS011;62916;50.044;15.938;2024-03-23T13:18:01;1.10;;;0.80;;
74465;SDS011;62916;50.044;15.938;2024-03-23T13:20:32;2.40;;;0.80;;
74465;SDS011;62916;50.044;15.938;2024-03-23T13:23:05;1.50;;;1.00;;
74465;SDS011;62916;50.044;15.938;2024-03-23T13:25:36;2.20;;;0.80;;
74465;SDS011;62916;50.044;15.938;2024-03-23T13:28:07;1.70;;;0.90;;
74465;SDS011;62916;50.044;15.938;2024-03-23T13:30:38;1.00;;;0.90;;
74465;SDS011;62916;50.044;15.938;2024-03-23T13:33:09;1.00;;;0.70;;
74465;SDS011;62916;50.044;15.938;2024-03-23T13:35:40;0.90;;;0.70;;
74465;SDS011;62916;50.044;15.938;2024-03-23T13:38:19;2.20;;;1.00;;
74465;SDS011;62916;50.044;15.938;2024-03-23T13:40:51;1.50;;;1.20;;
74465;SDS011;62916;50.044;15.938;2024-03-23T13:43:24;1.10;;;0.90;;
74465;SDS011;62916;50.044;15.938;2024-03-23T13:45:56;1.20;;;0.80;;
74465;SDS011;62916;50.044;15.938;2024-03-23T13:48:27;1.20;;;1.00;;
74465;SDS011;62916;50.044;15.938;2024-03-23T13:50:59;1.10;;;0.90;;
74465;SDS011;62916;50.044;15.938;2024-03-23T13:53:30;1.70;;;0.90;;
74465;SDS011;62916;50.044;15.938;2024-03-23T13:56:01;1.60;;;1.00;;
74465;SDS011;62916;50.044;15.938;2024-03-23T13:58:34;1.10;;;0.80;;
74465;SDS011;62916;50.044;15.938;2024-03-23T14:01:05;1.30;;;0.70;;
74465;SDS011;62916;50.044;15.938;2024-03-23T14:03:36;0.80;;;0.80;;
74465;SDS011;62916;50.044;15.938;2024-03-23T14:06:07;1.00;;;0.80;;
74465;SDS011;62916;50.044;15.938;2024-03-23T14:08:38;1.10;;;1.00;;
74465;SDS011;62916;50.044;15.938;2024-03-23T14:11:10;1.20;;;0.90;;
74465;SDS011;62916;50.044;15.938;2024-03-23T14:13:41;1.70;;;1.00;;
74465;SDS011;62916;50.044;15.938;2024-03-23T14:16:12;0.90;;;0.70;;
74465;SDS011;62916;50.044;15.938;2024-03-23T14:18:43;1.20;;;0.80;;
74465;SDS011;62916;50.044;15.938;2024-03-23T14:21:16;1.10;;;0.90;;
74465;SDS011;62916;50.044;15.938;2024-03-23T14:23:47;1.30;;;0.80;;
74465;SDS011;62916;50.044;15.938;2024-03-23T14:26:19;1.10;;;0.90;;
74465;SDS011;62916;50.044;15.938;2024-03-23T14:28:50;1.10;;;0.90;;
74465;SDS011;62916;50.044;15.938;2024-03-23T14:31:20;1.40;;;1.10;;
74465;SDS011;62916;50.044;15.938;2024-03-23T14:33:53;1.50;;;0.70;;
74465;SDS011;62916;50.044;15.938;2024-03-23T14:36:23;1.30;;;0.80;;
74465;SDS011;62916;50.044;15.938;2024-03-23T14:38:55;1.00;;;0.80;;
74465;SDS011;62916;50.044;15.938;2024-03-23T14:41:26;1.60;;;0.60;;
74465;SDS011;62916;50.044;15.938;2024-03-23T14:43:57;1.50;;;1.10;;
74465;SDS011;62916;50.044;15.938;2024-03-23T14:46:28;0.80;;;0.80;;
74465;SDS011;62916;50.044;15.938;2024-03-23T14:48:58;1.30;;;0.70;;
74465;SDS011;62916;50.044;15.938;2024-03-23T14:51:29;2.30;;;0.80;;
74465;SDS011;62916;50.044;15.938;2024-03-23T14:54:01;1.00;;;0.80;;
74465;SDS011;62916;50.044;15.938;2024-03-23T14:56:32;0.80;;;0.50;;
74465;SDS011;62916;50.044;15.938;2024-03-23T14:59:03;1.40;;;0.70;;
74465;SDS011;62916;50.044;15.938;2024-03-23T15:01:35;0.70;;;0.60;;
74465;SDS011;62916;50.044;15.938;2024-03-23T15:04:06;1.00;;;0.60;;
74465;SDS011;62916;50.044;15.938;2024-03-23T15:06:38;1.10;;;0.60;;
74465;SDS011;62916;50.044;15.938;2024-03-23T15:09:10;1.30;;;0.60;;
74465;SDS011;62916;50.044;15.938;2024-03-23T15:11:41;0.60;;;0.40;;
74465;SDS011;62916;50.044;15.938;2024-03-23T15:14:12;0.60;;;0.60;;
74465;SDS011;62916;50.044;15.938;2024-03-23T15:16:43;1.10;;;0.90;;
74465;SDS011;62916;50.044;15.938;2024-03-23T15:19:16;1.50;;;0.70;;
74465;SDS011;62916;50.044;15.938;2024-03-23T15:21:47;0.60;;;0.50;;
74465;SDS011;62916;50.044;15.938;2024-03-23T15:24:18;0.80;;;0.60;;
74465;SDS011;62916;50.044;15.938;2024-03-23T15:26:48;2.40;;;0.80;;
74465;SDS011;62916;50.044;15.938;2024-03-23T15:29:20;2.20;;;0.60;;
74465;SDS011;62916;50.044;15.938;2024-03-23T15:31:51;0.80;;;0.60;;
74465;SDS011;62916;50.044;15.938;2024-03-23T15:34:22;0.50;;;0.50;;
74465;SDS011;62916;50.044;15.938;2024-03-23T15:36:53;1.00;;;0.60;;
74465;SDS011;62916;50.044;15.938;2024-03-23T15:39:24;1.00;;;0.90;;
74465;SDS011;62916;50.044;15.938;2024-03-23T15:41:58;0.50;;;0.50;;
74465;SDS011;62916;50.044;15.938;2024-03-23T15:44:29;0.70;;;0.70;;
74465;SDS011;62916;50.044;15.938;2024-03-23T15:47:00;1.20;;;0.50;;
74465;SDS011;62916;50.044;15.938;2024-03-23T15:49:31;0.60;;;0.50;;
74465;SDS011;62916;50.044;15.938;2024-03-23T15:52:01;0.70;;;0.50;;
74465;SDS011;62916;50.044;15.938;2024-03-23T15:54:32;0.40;;;0.40;;
74465;SDS011;62916;50.044;15.938;2024-03-23T15:57:04;0.50;;;0.40;;